Time;durP1;ratioP1;P1;durP2;ratioP2;P2;SDS_P1;SDS_P2;PMS_P1;PMS_P2;Temp;Humidity;BMP_temperature;BMP_pressure;BME280_temperature;BME280_humidity;BME280_pressure;Samples;Min_cycle;Max_cycle;Signal;HPM_P1;HPM_P2
2021/12/02 00:02:18;;;;;;;2.07;0.80;;;26.00;99.90;;;;;;5069341;28;20233;-70
2021/12/02 00:04:46;;;;;;;2.63;0.80;;;25.80;99.90;;;;;;5070099;28;20190;-70
2021/12/02 00:07:14;;;;;;;3.50;0.70;;;26.00;99.90;;;;;;5072948;28;20196;-67
2021/12/02 00:09:41;;;;;;;1.20;0.63;;;25.90;99.90;;;;;;5072786;28;20266;-66
2021/12/02 00:12:09;;;;;;;4.17;0.70;;;26.00;99.90;;;;;;5071815;28;20183;-69
2021/12/02 00:14:40;;;;;;;3.57;0.90;;;25.90;99.90;;;;;;5071411;28;20346;-68
2021/12/02 00:17:13;;;;;;;5.50;0.73;;;25.90;99.90;;;;;;5069431;28;20278;-67
2021/12/02 00:22:28;;;;;;;6.13;0.93;;;26.10;99.90;;;;;;5072295;28;20198;-69
2021/12/02 00:25:01;;;;;;;2.83;0.70;;;26.10;99.90;;;;;;5071685;28;20182;-68
2021/12/02 00:27:29;;;;;;;2.63;0.93;;;26.40;99.90;;;;;;5071192;28;20223;-69
2021/12/02 00:29:58;;;;;;;3.27;0.73;;;26.30;99.90;;;;;;5066627;28;20640;-68
2021/12/02 00:32:30;;;;;;;1.40;0.50;;;26.30;99.90;;;;;;5070253;28;20183;-68
2021/12/02 00:34:58;;;;;;;1.43;0.70;;;26.40;99.90;;;;;;5070471;28;20281;-68
2021/12/02 00:37:27;;;;;;;2.13;0.60;;;26.60;99.90;;;;;;5072616;28;20661;-70
2021/12/02 00:39:55;;;;;;;3.03;1.00;;;26.70;99.90;;;;;;5072529;28;20672;-71
2021/12/02 00:42:24;;;;;;;1.97;0.80;;;27.00;99.90;;;;;;5069922;28;20282;-68
2021/12/02 00:44:51;;;;;;;3.83;0.70;;;26.90;99.90;;;;;;5072553;27;20248;-68
2021/12/02 00:47:20;;;;;;;1.83;1.00;;;27.10;99.90;;;;;;5072164;28;20191;-68
2021/12/02 00:49:47;;;;;;;6.07;0.90;;;27.50;99.90;;;;;;5071293;28;20252;-68
2021/12/02 00:52:15;;;;;;;5.70;0.63;;;27.50;99.90;;;;;;5072357;28;20180;-67
2021/12/02 00:54:43;;;;;;;1.83;0.60;;;27.10;99.90;;;;;;5072840;28;20683;-68
2021/12/02 00:57:13;;;;;;;1.97;0.53;;;27.10;99.90;;;;;;5069994;28;20669;-68
2021/12/02 00:59:41;;;;;;;3.37;0.70;;;27.20;99.90;;;;;;5061841;28;20537;-67
2021/12/02 01:02:10;;;;;;;1.80;0.80;;;27.10;99.90;;;;;;5070209;28;20247;-67
2021/12/02 01:04:37;;;;;;;2.70;0.70;;;27.40;99.90;;;;;;5069590;28;20264;-72
2021/12/02 01:07:05;;;;;;;2.33;0.87;;;27.30;99.90;;;;;;5071187;28;20183;-69
2021/12/02 01:09:32;;;;;;;4.17;0.57;;;27.20;99.90;;;;;;5071639;28;20186;-66
2021/12/02 01:12:00;;;;;;;2.37;0.67;;;27.30;99.90;;;;;;5069889;28;20252;-67
2021/12/02 01:14:28;;;;;;;4.60;0.80;;;27.50;99.90;;;;;;5070883;28;20219;-72
2021/12/02 01:16:57;;;;;;;3.70;0.50;;;27.50;99.90;;;;;;5070952;28;20179;-69
2021/12/02 01:19:24;;;;;;;2.97;0.70;;;27.50;99.90;;;;;;5071084;28;20493;-69
2021/12/02 01:21:55;;;;;;;2.67;0.70;;;27.60;99.90;;;;;;5071693;28;20211;-71
2021/12/02 01:24:24;;;;;;;3.97;0.60;;;28.10;99.90;;;;;;5071461;28;20261;-68
2021/12/02 01:26:54;;;;;;;2.53;0.57;;;27.90;99.90;;;;;;5070982;28;20539;-68
2021/12/02 01:29:24;;;;;;;2.67;0.57;;;28.20;99.90;;;;;;5070176;28;20239;-68
2021/12/02 01:31:55;;;;;;;2.43;0.60;;;27.90;99.90;;;;;;5071405;28;20187;-67
2021/12/02 01:34:25;;;;;;;1.43;0.70;;;28.10;99.90;;;;;;5071317;28;20179;-69
2021/12/02 01:36:54;;;;;;;1.03;0.60;;;28.10;99.90;;;;;;5067399;28;20218;-66
2021/12/02 01:39:23;;;;;;;5.03;1.00;;;28.10;99.90;;;;;;5066146;28;20645;-70
2021/12/02 01:41:53;;;;;;;3.60;0.80;;;28.20;99.90;;;;;;5067775;28;20222;-66
2021/12/02 01:44:22;;;;;;;5.20;0.70;;;28.30;99.90;;;;;;5069052;28;20199;-68
2021/12/02 01:46:52;;;;;;;3.20;0.90;;;28.50;99.90;;;;;;5071123;28;20201;-68
2021/12/02 01:49:22;;;;;;;2.93;0.77;;;28.40;99.90;;;;;;5071225;28;20270;-68
2021/12/02 01:51:52;;;;;;;2.80;0.70;;;28.20;99.90;;;;;;5070395;28;20194;-69
2021/12/02 01:54:27;;;;;;;2.13;0.50;;;27.90;99.90;;;;;;5070884;28;20179;-71
2021/12/02 01:57:09;;;;;;;4.80;0.93;;;27.60;99.90;;;;;;5069063;28;20178;-66
2021/12/02 01:59:39;;;;;;;2.27;0.83;;;27.90;99.90;;;;;;5069708;28;20207;-73
2021/12/02 02:02:09;;;;;;;2.70;0.80;;;28.00;99.90;;;;;;5069206;28;20211;-67
2021/12/02 02:04:37;;;;;;;2.33;0.70;;;28.20;99.90;;;;;;5070827;28;20175;-68
2021/12/02 02:07:12;;;;;;;3.07;0.80;;;28.40;99.90;;;;;;5069615;28;20261;-71
2021/12/02 02:09:40;;;;;;;3.83;0.90;;;28.50;99.90;;;;;;5065839;28;20175;-70
2021/12/02 02:12:11;;;;;;;4.43;0.90;;;28.30;99.90;;;;;;5069178;28;20183;-67
2021/12/02 02:14:39;;;;;;;2.60;0.80;;;28.00;99.90;;;;;;5068620;28;20313;-69
2021/12/02 02:17:24;;;;;;;3.07;0.90;;;28.10;99.90;;;;;;5065250;28;20201;-71
2021/12/02 02:19:52;;;;;;;3.33;0.90;;;27.70;99.90;;;;;;5066847;28;20617;-66
2021/12/02 02:22:22;;;;;;;4.60;1.07;;;27.60;99.90;;;;;;5065854;28;20187;-68
2021/12/02 02:24:50;;;;;;;2.73;0.70;;;27.50;99.90;;;;;;5065404;28;20187;-69
2021/12/02 02:27:21;;;;;;;6.20;1.00;;;27.80;99.90;;;;;;5069032;28;20207;-68
2021/12/02 02:29:49;;;;;;;4.57;0.83;;;28.00;99.90;;;;;;5067707;28;20195;-67
2021/12/02 02:32:17;;;;;;;4.33;1.33;;;28.30;99.90;;;;;;5067740;28;20183;-66
2021/12/02 02:34:46;;;;;;;4.50;1.10;;;28.20;99.90;;;;;;5063840;28;20275;-69
2021/12/02 02:37:13;;;;;;;2.47;0.90;;;28.40;99.90;;;;;;5065355;28;20258;-70
2021/12/02 02:39:41;;;;;;;2.40;0.83;;;28.20;99.90;;;;;;5068231;28;20274;-69
2021/12/02 02:42:09;;;;;;;3.40;0.80;;;28.20;99.90;;;;;;5065830;28;20306;-69
2021/12/02 02:44:38;;;;;;;4.20;1.00;;;27.90;99.90;;;;;;5068035;28;20240;-69
2021/12/02 02:47:06;;;;;;;3.60;1.13;;;28.00;99.90;;;;;;5068472;28;20255;-67
2021/12/02 02:49:33;;;;;;;3.03;0.60;;;28.60;99.90;;;;;;5066869;28;20241;-68
2021/12/02 02:52:00;;;;;;;4.37;1.03;;;28.80;99.90;;;;;;5067287;28;20656;-70
2021/12/02 02:54:27;;;;;;;1.67;0.80;;;29.00;99.90;;;;;;5069690;28;20191;-67
2021/12/02 02:57:04;;;;;;;3.40;0.70;;;28.60;99.90;;;;;;5069042;28;20175;-69
2021/12/02 03:03:21;;;;;;;3.27;0.90;;;28.60;99.90;;;;;;5064416;28;20282;-68
2021/12/02 03:07:56;;;;;;;2.73;0.73;;;28.50;99.90;;;;;;5069068;28;20175;-69
2021/12/02 03:17:48;;;;;;;2.73;0.70;;;28.30;99.90;;;;;;5066924;28;20202;-75
2021/12/02 03:20:16;;;;;;;4.73;1.20;;;28.50;99.90;;;;;;5069150;28;20207;-68
2021/12/02 03:22:43;;;;;;;1.90;0.60;;;28.60;99.90;;;;;;5067811;28;20183;-68
2021/12/02 03:25:12;;;;;;;2.07;0.80;;;28.50;99.90;;;;;;5068276;28;20240;-66
2021/12/02 03:27:39;;;;;;;4.60;0.70;;;28.50;99.90;;;;;;5068383;28;20187;-67
2021/12/02 03:30:07;;;;;;;6.43;1.10;;;28.60;99.90;;;;;;5068658;28;20228;-67
2021/12/02 03:32:37;;;;;;;1.90;0.90;;;28.50;99.90;;;;;;5066612;28;20198;-71
2021/12/02 03:35:06;;;;;;;1.67;0.70;;;28.40;99.90;;;;;;5066774;28;20544;-67
2021/12/02 03:37:33;;;;;;;4.70;0.90;;;28.50;99.90;;;;;;5068777;27;20545;-67
2021/12/02 03:40:00;;;;;;;3.20;0.73;;;28.60;99.90;;;;;;5069898;28;20202;-67
2021/12/02 03:42:28;;;;;;;2.90;1.20;;;29.00;99.90;;;;;;5072450;28;20182;-71
2021/12/02 03:44:55;;;;;;;2.97;1.00;;;28.80;99.90;;;;;;5072305;28;20203;-69
2021/12/02 03:47:22;;;;;;;3.80;0.90;;;28.70;99.90;;;;;;5070406;28;20664;-71
2021/12/02 03:49:50;;;;;;;5.30;0.80;;;28.60;99.90;;;;;;5071247;28;20240;-67
2021/12/02 03:52:17;;;;;;;3.20;0.80;;;28.70;99.90;;;;;;5070999;28;20590;-69
2021/12/02 03:54:45;;;;;;;2.83;0.80;;;28.70;99.90;;;;;;5071499;28;20191;-66
2021/12/02 03:57:12;;;;;;;2.70;0.77;;;29.30;99.90;;;;;;5072397;28;20194;-67
2021/12/02 03:59:39;;;;;;;2.47;0.60;;;29.60;99.90;;;;;;5068712;28;20233;-68
2021/12/02 04:02:06;;;;;;;3.80;0.70;;;29.80;99.90;;;;;;5067244;28;20219;-72
2021/12/02 04:04:34;;;;;;;3.00;0.70;;;29.70;99.90;;;;;;5070325;28;20183;-69
2021/12/02 04:07:01;;;;;;;4.30;0.73;;;29.70;99.90;;;;;;5069859;28;20184;-70
2021/12/02 04:09:36;;;;;;;3.57;0.80;;;29.10;99.90;;;;;;5070581;28;20211;-70
2021/12/02 04:12:25;;;;;;;4.00;0.60;;;29.20;99.90;;;;;;5069445;28;20183;-68
2021/12/02 04:17:46;;;;;;;2.37;0.70;;;29.40;99.90;;;;;;5072273;28;20554;-69
2021/12/02 04:20:19;;;;;;;4.40;0.70;;;28.90;99.90;;;;;;5069798;28;20566;-71
2021/12/02 04:22:47;;;;;;;6.33;0.73;;;28.60;99.90;;;;;;5068149;28;20545;-69
2021/12/02 04:25:16;;;;;;;5.57;0.60;;;28.50;99.90;;;;;;5070077;28;20183;-69
2021/12/02 04:27:44;;;;;;;4.97;0.63;;;28.40;99.90;;;;;;5069901;28;20179;-70
2021/12/02 04:30:14;;;;;;;1.07;0.60;;;28.80;99.90;;;;;;5068781;28;20191;-68
2021/12/02 04:32:42;;;;;;;2.47;0.67;;;28.80;99.90;;;;;;5069616;28;20582;-70
2021/12/02 04:35:11;;;;;;;1.53;0.50;;;28.90;99.90;;;;;;5071223;28;20225;-67
2021/12/02 04:37:40;;;;;;;1.40;0.60;;;28.90;99.90;;;;;;5069275;28;20191;-69
2021/12/02 04:40:08;;;;;;;1.10;0.40;;;28.80;99.90;;;;;;5070721;28;20546;-68
2021/12/02 04:42:35;;;;;;;3.00;0.70;;;28.70;99.90;;;;;;5071535;28;20198;-68
2021/12/02 04:45:03;;;;;;;3.90;0.60;;;28.80;99.90;;;;;;5071234;28;20188;-71
2021/12/02 04:47:30;;;;;;;2.77;1.07;;;29.20;99.90;;;;;;5070302;28;20649;-68
2021/12/02 04:49:58;;;;;;;1.73;0.60;;;28.90;99.90;;;;;;5071018;28;20175;-69
2021/12/02 04:52:25;;;;;;;1.23;0.50;;;29.10;99.90;;;;;;5071046;28;20187;-70
2021/12/02 04:54:52;;;;;;;2.50;0.50;;;28.90;99.90;;;;;;5070732;28;20609;-68
2021/12/02 04:57:19;;;;;;;0.93;0.70;;;28.70;99.90;;;;;;5070568;28;20266;-67
2021/12/02 04:59:47;;;;;;;1.27;0.60;;;29.10;99.90;;;;;;5070558;28;20180;-67
2021/12/02 05:02:14;;;;;;;2.27;0.70;;;29.50;99.90;;;;;;5068036;28;20505;-68
2021/12/02 05:04:42;;;;;;;0.73;0.30;;;30.40;99.30;;;;;;5070359;28;20183;-67
2021/12/02 05:07:09;;;;;;;4.20;0.55;;;29.80;99.60;;;;;;5068736;28;20669;-69
2021/12/02 05:09:36;;;;;;;0.90;0.40;;;29.60;99.50;;;;;;5069863;28;20266;-71
2021/12/02 05:12:04;;;;;;;1.27;0.70;;;29.40;99.50;;;;;;5070225;28;20171;-68
2021/12/02 05:14:32;;;;;;;1.03;0.50;;;29.50;98.90;;;;;;5070327;28;20291;-66
2021/12/02 05:16:59;;;;;;;1.13;0.40;;;29.30;99.20;;;;;;5069736;28;20180;-67
2021/12/02 05:19:26;;;;;;;4.00;0.40;;;29.10;99.60;;;;;;5070281;28;20646;-66
2021/12/02 05:21:54;;;;;;;0.63;0.37;;;29.80;99.10;;;;;;5068824;28;20227;-70
2021/12/02 05:24:21;;;;;;;4.00;0.60;;;29.70;98.70;;;;;;5070948;28;20191;-66
2021/12/02 05:26:48;;;;;;;6.30;0.53;;;29.30;99.60;;;;;;5070354;28;20197;-67
2021/12/02 05:29:16;;;;;;;1.80;0.70;;;29.00;99.40;;;;;;5068373;28;20996;-66
2021/12/02 05:31:43;;;;;;;2.28;0.82;;;29.20;99.80;;;;;;5068114;28;20262;-69
2021/12/02 05:34:10;;;;;;;1.87;0.40;;;29.70;99.40;;;;;;5070858;28;20218;-67
2021/12/02 05:36:37;;;;;;;2.10;0.53;;;29.20;99.80;;;;;;5069912;28;20202;-66
2021/12/02 05:39:05;;;;;;;2.70;0.50;;;29.50;99.70;;;;;;5070592;28;20179;-67
2021/12/02 05:41:32;;;;;;;4.80;0.90;;;29.70;99.30;;;;;;5070615;28;20722;-70
2021/12/02 05:44:00;;;;;;;555.97;504.90;;;29.50;99.40;;;;;;5067050;28;20668;-68
2021/12/02 05:46:28;;;;;;;5.07;0.57;;;29.40;99.40;;;;;;5070376;28;20179;-71
2021/12/02 05:48:55;;;;;;;1.30;0.60;;;29.60;99.00;;;;;;5070132;28;20543;-66
2021/12/02 05:51:22;;;;;;;2.20;0.40;;;29.20;99.40;;;;;;5069608;28;20193;-67
2021/12/02 05:53:50;;;;;;;1.33;0.57;;;28.90;99.90;;;;;;5069661;28;20175;-66
2021/12/02 05:56:17;;;;;;;0.88;0.43;;;29.00;99.70;;;;;;5070145;28;20179;-67
2021/12/02 05:58:45;;;;;;;1.17;0.50;;;29.40;99.40;;;;;;5069552;28;20551;-67
2021/12/02 06:01:12;;;;;;;2.28;0.60;;;29.50;99.60;;;;;;5070444;28;20670;-69
2021/12/02 06:03:40;;;;;;;1.23;0.43;;;29.40;99.60;;;;;;5069854;28;20210;-70
2021/12/02 06:06:08;;;;;;;2.85;0.70;;;29.30;99.90;;;;;;5069318;28;20194;-68
2021/12/02 06:08:36;;;;;;;859.27;787.93;;;29.70;99.40;;;;;;5069286;28;20183;-70
2021/12/02 06:11:04;;;;;;;3.77;0.40;;;29.50;99.40;;;;;;5068211;28;20188;-69
2021/12/02 06:13:31;;;;;;;2.90;0.43;;;29.20;99.60;;;;;;5069818;28;20186;-69
2021/12/02 06:15:59;;;;;;;3.13;0.73;;;28.50;99.90;;;;;;5068614;28;20698;-70
2021/12/02 06:18:26;;;;;;;1.30;0.60;;;28.80;99.90;;;;;;5069786;28;20181;-70
2021/12/02 06:20:54;;;;;;;1.70;0.80;;;28.90;99.90;;;;;;5070490;28;20198;-68
2021/12/02 06:23:22;;;;;;;1.57;0.60;;;28.50;99.90;;;;;;5067323;28;20179;-67
2021/12/02 06:25:51;;;;;;;2.03;0.60;;;28.50;99.90;;;;;;5069589;28;20262;-68
2021/12/02 06:28:19;;;;;;;2.97;0.50;;;29.30;99.90;;;;;;5068672;28;20179;-68
2021/12/02 06:30:47;;;;;;;1.80;0.87;;;29.50;99.90;;;;;;5070125;28;20187;-73
2021/12/02 06:33:15;;;;;;;2.20;0.60;;;28.90;99.90;;;;;;5066648;28;20625;-67
2021/12/02 06:35:43;;;;;;;1.07;0.50;;;29.10;99.90;;;;;;5070042;28;20190;-70
2021/12/02 06:38:11;;;;;;;1.83;0.83;;;28.50;99.90;;;;;;5065846;28;20253;-68
2021/12/02 06:40:40;;;;;;;1.33;0.60;;;28.30;99.90;;;;;;5065125;28;20222;-70
2021/12/02 06:43:07;;;;;;;2.40;0.63;;;28.60;99.90;;;;;;5068761;28;20187;-67
2021/12/02 06:45:35;;;;;;;2.23;0.77;;;28.10;99.90;;;;;;5068765;28;20262;-69
2021/12/02 06:48:02;;;;;;;5.17;1.07;;;28.30;99.90;;;;;;5066872;28;20629;-68
2021/12/02 06:50:31;;;;;;;3.80;0.60;;;28.10;99.90;;;;;;5066682;28;20183;-72
2021/12/02 06:52:59;;;;;;;1.53;0.63;;;28.20;99.90;;;;;;5063743;28;20191;-67
2021/12/02 06:55:27;;;;;;;2.87;0.70;;;28.20;99.90;;;;;;5068429;28;20191;-68
2021/12/02 06:57:54;;;;;;;2.10;0.60;;;28.50;99.90;;;;;;5067717;28;20175;-71
2021/12/02 07:00:23;;;;;;;1.60;0.60;;;28.10;99.90;;;;;;5065513;28;20559;-68
2021/12/02 07:02:54;;;;;;;4.27;0.60;;;28.30;99.90;;;;;;5065373;28;20222;-68
2021/12/02 07:05:22;;;;;;;1.00;0.70;;;28.00;99.90;;;;;;5068049;28;20702;-71
2021/12/02 07:07:50;;;;;;;4.97;0.73;;;28.20;99.90;;;;;;5065384;28;20236;-67
2021/12/02 07:10:24;;;;;;;2.37;1.07;;;28.00;99.90;;;;;;5069776;28;20268;-68
2021/12/02 07:12:57;;;;;;;0.80;0.50;;;27.60;99.90;;;;;;5066682;28;20225;-70
2021/12/02 07:15:35;;;;;;;1.67;0.50;;;27.00;99.90;;;;;;5066743;28;20215;-68
2021/12/02 07:18:11;;;;;;;6.47;0.70;;;26.50;99.90;;;;;;5067508;28;20187;-68
2021/12/02 07:20:40;;;;;;;1.10;0.47;;;26.30;99.90;;;;;;5069186;28;20214;-67
2021/12/02 07:23:08;;;;;;;1.13;0.63;;;26.20;99.90;;;;;;5067523;28;20635;-69
2021/12/02 07:25:38;;;;;;;0.60;0.37;;;26.10;99.90;;;;;;5069218;28;20209;-70
2021/12/02 07:28:06;;;;;;;2.53;0.50;;;25.60;99.90;;;;;;5066074;28;20333;-73
2021/12/02 07:30:34;;;;;;;1.33;0.60;;;25.20;99.90;;;;;;5068021;28;20687;-71
2021/12/02 07:33:03;;;;;;;2.37;0.67;;;25.10;99.90;;;;;;5069973;28;20183;-67
2021/12/02 07:35:30;;;;;;;2.83;0.83;;;24.60;99.90;;;;;;5067043;28;20216;-67
2021/12/02 07:38:03;;;;;;;3.57;1.00;;;24.40;99.90;;;;;;5058696;28;20180;-66
2021/12/02 07:40:37;;;;;;;6.00;3.40;;;24.10;99.90;;;;;;5069369;28;20585;-67
2021/12/02 07:43:05;;;;;;;14.93;8.60;;;23.90;99.90;;;;;;5066809;28;20254;-68
2021/12/02 07:45:35;;;;;;;7.10;3.03;;;23.80;99.90;;;;;;5064982;28;20184;-68
2021/12/02 07:48:04;;;;;;;6.33;1.27;;;23.80;99.90;;;;;;5068517;28;20328;-72
2021/12/02 07:50:33;;;;;;;2.03;0.83;;;23.70;99.90;;;;;;5068284;28;20222;-67
2021/12/02 07:53:03;;;;;;;2.00;0.73;;;23.60;99.90;;;;;;5069552;28;20184;-69
2021/12/02 07:55:31;;;;;;;3.33;0.93;;;23.60;99.90;;;;;;5065049;28;20307;-68
2021/12/02 07:57:59;;;;;;;4.33;1.33;;;23.60;99.90;;;;;;5066878;28;20282;-67
2021/12/02 08:00:28;;;;;;;7.10;1.00;;;23.60;99.90;;;;;;5067634;28;20199;-70
2021/12/02 08:02:56;;;;;;;3.40;1.07;;;23.70;99.90;;;;;;5066064;28;20180;-67
2021/12/02 08:05:26;;;;;;;2.60;0.90;;;23.70;99.90;;;;;;5069237;28;20176;-71
2021/12/02 08:07:54;;;;;;;2.40;1.00;;;23.60;99.90;;;;;;5068316;28;20179;-71
2021/12/02 08:10:22;;;;;;;3.30;1.30;;;23.50;99.90;;;;;;5067888;28;20266;-68
2021/12/02 08:12:51;;;;;;;3.37;1.20;;;23.40;99.90;;;;;;5066173;28;20206;-67
2021/12/02 08:15:23;;;;;;;5.07;1.20;;;23.50;99.90;;;;;;5068355;28;20230;-68
2021/12/02 08:17:51;;;;;;;8.20;2.13;;;23.40;99.90;;;;;;5069065;28;20195;-70
2021/12/02 08:20:21;;;;;;;2.57;0.90;;;23.20;99.90;;;;;;5066188;28;20190;-67
2021/12/02 08:22:48;;;;;;;1.30;0.70;;;23.10;99.90;;;;;;5068541;28;20244;-68
2021/12/02 08:25:17;;;;;;;3.57;1.10;;;23.10;99.90;;;;;;5069300;28;20192;-70
2021/12/02 08:27:44;;;;;;;3.50;0.80;;;23.00;99.90;;;;;;5072300;28;20250;-72
2021/12/02 08:30:14;;;;;;;2.30;0.77;;;22.90;99.90;;;;;;5067966;28;20183;-69
2021/12/02 08:32:43;;;;;;;3.93;0.80;;;22.80;99.90;;;;;;5070090;28;20182;-68
2021/12/02 08:35:11;;;;;;;2.97;0.80;;;22.80;99.90;;;;;;5071156;28;20187;-67
2021/12/02 08:37:43;;;;;;;3.87;0.80;;;22.80;99.90;;;;;;5069019;28;20201;-67
2021/12/02 08:40:13;;;;;;;3.63;1.00;;;22.80;99.90;;;;;;5068401;28;21482;-68
2021/12/02 08:42:41;;;;;;;5.43;1.00;;;22.70;99.90;;;;;;5069940;28;20642;-69
2021/12/02 08:45:10;;;;;;;2.87;0.90;;;22.70;99.90;;;;;;5066503;28;20180;-69
2021/12/02 08:47:43;;;;;;;3.37;0.90;;;22.60;99.90;;;;;;5068770;28;20556;-67
2021/12/02 08:50:13;;;;;;;3.77;1.10;;;22.60;99.90;;;;;;5071212;28;20660;-67
2021/12/02 08:52:40;;;;;;;2.57;0.80;;;22.50;99.90;;;;;;5070268;28;20183;-67
2021/12/02 08:55:08;;;;;;;2.80;1.00;;;22.50;99.90;;;;;;5069980;28;20194;-66
2021/12/02 08:57:36;;;;;;;3.03;0.80;;;22.50;99.90;;;;;;5070009;28;20241;-67
2021/12/02 09:00:06;;;;;;;4.77;1.00;;;22.50;99.90;;;;;;5067090;28;20537;-77
2021/12/02 09:02:34;;;;;;;2.07;0.87;;;22.40;99.90;;;;;;5068914;28;20207;-66
2021/12/02 09:05:01;;;;;;;2.57;0.70;;;22.40;99.90;;;;;;5070312;28;20175;-67
2021/12/02 09:07:28;;;;;;;5.13;1.00;;;22.40;99.90;;;;;;5066731;28;20179;-71
2021/12/02 09:09:56;;;;;;;6.40;0.70;;;22.30;99.90;;;;;;5070747;28;20633;-73
2021/12/02 09:12:24;;;;;;;3.53;0.83;;;22.30;99.90;;;;;;5070819;28;20266;-67
2021/12/02 09:14:52;;;;;;;2.43;0.80;;;22.20;99.90;;;;;;5069912;28;20279;-66
2021/12/02 09:17:20;;;;;;;0.83;0.50;;;22.30;99.90;;;;;;5071037;28;20191;-68
2021/12/02 09:19:48;;;;;;;2.80;0.80;;;22.30;99.90;;;;;;5069084;28;20263;-68
2021/12/02 09:22:16;;;;;;;2.33;0.90;;;22.20;99.90;;;;;;5071319;28;20230;-67
2021/12/02 09:24:43;;;;;;;1.70;0.80;;;22.20;99.90;;;;;;5070395;28;20179;-70
2021/12/02 09:27:11;;;;;;;3.23;0.67;;;22.20;99.90;;;;;;5069612;28;20266;-68
2021/12/02 09:29:38;;;;;;;2.20;0.80;;;22.20;99.90;;;;;;5071080;28;20183;-67
2021/12/02 09:32:06;;;;;;;2.97;0.70;;;22.10;99.90;;;;;;5072141;28;20527;-66
2021/12/02 09:34:34;;;;;;;3.20;0.70;;;22.10;99.90;;;;;;5070729;28;20651;-68
2021/12/02 09:37:01;;;;;;;1.70;0.80;;;22.00;99.90;;;;;;5070035;28;20195;-68
2021/12/02 09:39:30;;;;;;;1.93;0.60;;;22.00;99.90;;;;;;5070146;28;20193;-68
2021/12/02 09:41:57;;;;;;;2.30;0.90;;;22.00;99.90;;;;;;5068455;28;20211;-66
2021/12/02 09:44:25;;;;;;;4.97;1.17;;;22.00;99.90;;;;;;5070769;28;20184;-69
2021/12/02 09:46:53;;;;;;;6.97;0.83;;;21.90;99.90;;;;;;5072334;28;20179;-67
2021/12/02 09:49:23;;;;;;;2.67;1.00;;;21.90;99.90;;;;;;5071151;28;20199;-70
2021/12/02 09:54:26;;;;;;;3.27;0.80;;;21.90;99.90;;;;;;5071487;28;20180;-68
2021/12/02 09:56:57;;;;;;;3.40;0.90;;;21.80;99.90;;;;;;5067050;28;20192;-67
2021/12/02 09:59:30;;;;;;;4.37;1.10;;;21.90;99.90;;;;;;5066293;28;20233;-68
2021/12/02 10:02:02;;;;;;;7.87;0.80;;;21.90;99.90;;;;;;5071099;28;20215;-68
2021/12/02 10:04:31;;;;;;;6.07;1.10;;;21.90;99.90;;;;;;5066663;28;20249;-70
2021/12/02 10:07:08;;;;;;;10.47;6.77;;;21.80;99.90;;;;;;5070235;28;20262;-68
2021/12/02 10:09:44;;;;;;;3.40;1.33;;;21.80;99.90;;;;;;5069350;28;20183;-67
2021/12/02 10:12:22;;;;;;;7.23;4.67;;;21.80;99.90;;;;;;5064798;28;20316;-68
2021/12/02 10:14:58;;;;;;;5.70;1.20;;;21.80;99.90;;;;;;5071052;28;20230;-67
2021/12/02 10:23:20;;;;;;;5.20;1.27;;;21.70;99.90;;;;;;5070189;28;20195;-71
2021/12/02 10:26:06;;;;;;;2.97;0.90;;;21.70;99.90;;;;;;5066976;28;20163;-68
2021/12/02 10:28:42;;;;;;;4.43;0.93;;;21.70;99.90;;;;;;5067463;28;20657;-69
2021/12/02 10:31:11;;;;;;;2.47;0.80;;;21.70;99.90;;;;;;5068984;28;20179;-68
2021/12/02 10:33:49;;;;;;;6.30;1.03;;;21.70;99.90;;;;;;5070557;28;20190;-69
2021/12/02 10:36:32;;;;;;;4.07;0.97;;;21.70;99.90;;;;;;5069880;28;20696;-68
2021/12/02 10:39:12;;;;;;;2.53;1.00;;;21.70;99.90;;;;;;5063912;28;20215;-69
2021/12/02 10:41:44;;;;;;;9.27;1.57;;;21.70;99.90;;;;;;5068450;28;20248;-69
2021/12/02 10:44:24;;;;;;;4.10;1.40;;;21.70;99.90;;;;;;5068876;28;20191;-67
2021/12/02 10:47:07;;;;;;;3.47;1.10;;;21.80;99.90;;;;;;5066673;28;20186;-71
2021/12/02 10:49:48;;;;;;;3.53;1.17;;;21.70;99.90;;;;;;5070008;28;20244;-70
2021/12/02 10:52:23;;;;;;;2.33;0.77;;;21.70;99.90;;;;;;5069108;28;20210;-71
2021/12/02 10:55:11;;;;;;;4.80;1.20;;;21.70;99.90;;;;;;5070737;28;20185;-69
2021/12/02 10:57:50;;;;;;;3.70;1.00;;;21.70;99.90;;;;;;5067445;28;20195;-68
2021/12/02 11:00:21;;;;;;;4.33;0.80;;;21.60;99.90;;;;;;5066516;28;20285;-68
2021/12/02 11:02:53;;;;;;;4.20;0.97;;;21.60;99.90;;;;;;5064577;28;20321;-68
2021/12/02 11:05:32;;;;;;;3.73;0.90;;;21.60;99.90;;;;;;5063865;28;20560;-68
2021/12/02 11:08:11;;;;;;;5.53;1.17;;;21.60;99.90;;;;;;5064448;28;20267;-68
2021/12/02 11:10:56;;;;;;;3.73;1.07;;;21.60;99.90;;;;;;5067597;28;20208;-67
2021/12/02 11:13:26;;;;;;;3.63;1.27;;;21.60;99.90;;;;;;5069129;28;20182;-68
2021/12/02 11:15:54;;;;;;;9.10;1.00;;;21.60;99.90;;;;;;5066751;28;20238;-69
2021/12/02 11:18:23;;;;;;;4.93;0.87;;;21.60;99.90;;;;;;5068508;28;20555;-68
2021/12/02 11:20:57;;;;;;;3.53;1.40;;;21.60;99.90;;;;;;5066703;28;20291;-70
2021/12/02 11:23:41;;;;;;;5.90;0.90;;;21.60;99.90;;;;;;5066769;28;20548;-68
2021/12/02 11:26:11;;;;;;;3.33;0.70;;;21.60;99.90;;;;;;5066793;28;20180;-69
2021/12/02 11:28:41;;;;;;;6.90;1.17;;;21.60;99.90;;;;;;5066254;28;20217;-68
2021/12/02 11:31:17;;;;;;;5.43;1.10;;;21.60;99.90;;;;;;5069181;28;20209;-68
2021/12/02 11:33:47;;;;;;;6.27;1.00;;;21.60;99.90;;;;;;5064023;28;20226;-68
2021/12/02 11:36:23;;;;;;;7.97;1.30;;;21.60;99.90;;;;;;5072425;28;20248;-68
2021/12/02 11:38:55;;;;;;;2.27;1.00;;;21.60;99.90;;;;;;5067665;28;20198;-68
2021/12/02 11:41:23;;;;;;;5.50;0.93;;;21.60;99.90;;;;;;5066154;28;20218;-67
2021/12/02 11:43:53;;;;;;;2.57;0.80;;;21.60;99.90;;;;;;5069241;28;20197;-69
2021/12/02 11:46:21;;;;;;;7.90;1.40;;;21.60;99.90;;;;;;5065597;28;20176;-68
2021/12/02 11:48:49;;;;;;;4.60;0.80;;;21.50;99.90;;;;;;5070885;28;20297;-68
2021/12/02 11:51:20;;;;;;;6.20;1.03;;;21.50;99.90;;;;;;5068971;28;20260;-67
2021/12/02 11:53:48;;;;;;;5.17;0.90;;;21.50;99.90;;;;;;5061571;28;20187;-69
2021/12/02 11:56:20;;;;;;;4.93;0.90;;;21.50;99.90;;;;;;5064676;28;20179;-69
2021/12/02 11:58:50;;;;;;;3.87;0.80;;;21.40;99.90;;;;;;5063130;28;20183;-68
2021/12/02 12:01:25;;;;;;;3.60;0.90;;;21.40;99.90;;;;;;5068830;28;20207;-67
2021/12/02 12:04:04;;;;;;;6.03;1.00;;;21.40;99.90;;;;;;5071810;28;20684;-67
2021/12/02 12:06:36;;;;;;;2.17;1.00;;;21.40;99.90;;;;;;5072645;28;20207;-67
2021/12/02 12:09:12;;;;;;;3.10;0.93;;;21.40;99.90;;;;;;5073736;28;20223;-72
2021/12/02 12:11:49;;;;;;;4.57;1.10;;;21.40;99.90;;;;;;5073686;28;20564;-67
2021/12/02 12:14:19;;;;;;;4.80;0.70;;;21.40;99.90;;;;;;5072020;28;20762;-70
2021/12/02 12:16:51;;;;;;;3.27;0.80;;;21.40;99.90;;;;;;5068365;28;20763;-68
2021/12/02 12:19:26;;;;;;;1.93;1.00;;;21.30;99.90;;;;;;5071680;28;20220;-68
2021/12/02 12:22:01;;;;;;;3.93;0.90;;;21.40;99.90;;;;;;5071742;28;20222;-68
2021/12/02 12:24:50;;;;;;;10.90;1.47;;;21.30;99.90;;;;;;5072663;28;20886;-68
2021/12/02 12:27:27;;;;;;;9.43;1.30;;;21.30;99.90;;;;;;5071790;28;20195;-67
2021/12/02 12:30:08;;;;;;;8.20;1.17;;;21.30;99.90;;;;;;5069123;28;20184;-67
2021/12/02 12:32:51;;;;;;;4.93;1.20;;;21.30;99.90;;;;;;5072459;28;20179;-70
2021/12/02 12:36:15;;;;;;;5.37;1.00;;;21.20;99.90;;;;;;5067004;28;20184;-67
2021/12/02 12:38:30;;;;;;;1.50;0.70;;;21.20;99.90;;;;;;5069396;28;20253;-67
2021/12/02 12:41:17;;;;;;;2.93;0.90;;;21.20;99.90;;;;;;5070050;28;20203;-67
2021/12/02 12:43:50;;;;;;;6.50;0.80;;;21.10;99.90;;;;;;5068725;28;20202;-68
2021/12/02 12:46:23;;;;;;;3.60;0.97;;;21.20;99.90;;;;;;5073057;28;20195;-67
2021/12/02 12:48:52;;;;;;;5.13;1.13;;;21.10;99.90;;;;;;5073704;28;20190;-67
2021/12/02 12:51:32;;;;;;;5.87;1.37;;;21.10;99.90;;;;;;5067160;28;20198;-68
2021/12/02 12:54:02;;;;;;;4.87;0.97;;;21.10;99.90;;;;;;5072383;28;20257;-69
2021/12/02 12:56:40;;;;;;;4.70;1.13;;;21.00;99.90;;;;;;5073201;28;20199;-68
2021/12/02 12:59:14;;;;;;;6.50;1.20;;;21.00;99.90;;;;;;5070536;28;20179;-67
2021/12/02 13:02:06;;;;;;;5.43;1.00;;;21.00;99.90;;;;;;5068995;28;20293;-68
2021/12/02 13:04:52;;;;;;;8.70;1.10;;;21.00;99.90;;;;;;5070990;28;20332;-68
2021/12/02 13:07:21;;;;;;;2.33;0.90;;;20.90;99.90;;;;;;5067129;28;20314;-68
2021/12/02 13:10:02;;;;;;;5.50;0.97;;;20.90;99.90;;;;;;5073345;28;20539;-68
2021/12/02 13:12:38;;;;;;;4.10;0.90;;;20.80;99.90;;;;;;5066760;28;20191;-67
2021/12/02 13:15:07;;;;;;;4.90;0.90;;;20.80;99.90;;;;;;5070288;28;20716;-68
2021/12/02 13:17:47;;;;;;;8.37;1.13;;;20.80;99.90;;;;;;5071971;28;20202;-68
2021/12/02 13:20:27;;;;;;;959.93;681.47;;;20.80;99.90;;;;;;5071688;28;20202;-67
2021/12/02 13:23:15;;;;;;;784.07;437.40;;;20.70;99.90;;;;;;5072441;28;20186;-68
2021/12/02 13:25:51;;;;;;;767.33;423.70;;;20.80;99.90;;;;;;5068436;28;20241;-68
2021/12/02 13:28:31;;;;;;;149.73;62.67;;;20.70;99.90;;;;;;5067510;28;20187;-68
2021/12/02 13:31:06;;;;;;;4.63;1.20;;;20.70;99.90;;;;;;5072477;28;20187;-68